Time;durP1;ratioP1;P1;durP2;ratioP2;P2;SDS_P1;SDS_P2;PMS_P1;PMS_P2;Temp;Humidity;BMP_temperature;BMP_pressure;BME280_temperature;BME280_humidity;BME280_pressure;Samples;Min_cycle;Max_cycle;Signal;HPM_P1;HPM_P2
2022/12/12 00:01:01;;;;;;;22.90;12.90;;;;;;;-5.08;84.40;95311.97;2042315;29;20047;-54
2022/12/12 00:02:02;;;;;;;25.88;12.25;;;;;;;-5.11;84.54;95308.56;2041885;29;20059;-58
2022/12/12 00:03:03;;;;;;;22.90;11.77;;;;;;;-5.11;84.38;95308.56;2041325;29;20056;-59
2022/12/12 00:04:04;;;;;;;22.65;12.02;;;;;;;-5.15;84.61;95309.44;2041464;29;20054;-59
2022/12/12 00:05:06;;;;;;;23.13;12.05;;;;;;;-5.14;84.23;95308.56;2041809;29;20054;-59
2022/12/12 00:06:07;;;;;;;25.85;13.07;;;;;;;-5.18;84.39;95304.38;2041577;29;20056;-59
2022/12/12 00:07:09;;;;;;;21.67;11.90;;;;;;;-5.20;84.43;95308.56;2042359;29;20035;-57
2022/12/12 00:08:10;;;;;;;24.17;12.57;;;;;;;-5.25;84.36;95310.25;2042107;29;20492;-57
2022/12/12 00:09:11;;;;;;;26.20;13.02;;;;;;;-5.24;84.42;95308.53;2042081;29;20046;-56
2022/12/12 00:10:12;;;;;;;24.92;12.63;;;;;;;-5.25;84.42;95311.94;2041310;29;20048;-57
2022/12/12 00:11:13;;;;;;;27.60;14.38;;;;;;;-5.25;84.90;95309.41;2041975;29;20047;-57
2022/12/12 00:12:16;;;;;;;24.00;11.85;;;;;;;-5.24;84.61;95308.53;2042158;29;20043;-55
2022/12/12 00:13:17;;;;;;;24.70;13.30;;;;;;;-5.22;84.32;95305.19;2042101;29;20051;-56
2022/12/12 00:14:18;;;;;;;24.10;12.02;;;;;;;-5.23;84.56;95303.50;2041765;29;20056;-56
2022/12/12 00:15:20;;;;;;;28.30;14.45;;;;;;;-5.33;85.03;95296.72;2041912;29;20058;-55
2022/12/12 00:16:21;;;;;;;23.45;12.90;;;;;;;-5.25;84.78;95309.41;2041540;29;20051;-56
2022/12/12 00:17:22;;;;;;;23.35;12.57;;;;;;;-5.28;84.74;95310.25;2042028;29;20047;-56
2022/12/12 00:18:23;;;;;;;25.98;13.75;;;;;;;-5.27;84.80;95309.38;2041806;29;20051;-55
2022/12/12 00:19:24;;;;;;;23.67;12.63;;;;;;;-5.28;85.17;95307.69;2042403;29;20067;-55
2022/12/12 00:20:26;;;;;;;26.50;13.65;;;;;;;-5.28;84.63;95312.75;2042086;29;20496;-56
2022/12/12 00:21:28;;;;;;;25.65;13.85;;;;;;;-5.29;85.29;95308.56;2042195;29;20043;-56
2022/12/12 00:22:29;;;;;;;27.83;13.68;;;;;;;-5.33;84.73;95307.69;2041718;29;20055;-57
2022/12/12 00:23:30;;;;;;;25.42;12.35;;;;;;;-5.33;85.41;95315.28;2041950;29;20064;-57
2022/12/12 00:24:31;;;;;;;23.90;12.77;;;;;;;-5.34;84.85;95307.69;2041665;29;20152;-57
2022/12/12 00:25:33;;;;;;;25.15;12.75;;;;;;;-5.38;85.54;95306.81;2042230;29;20051;-56
2022/12/12 00:26:34;;;;;;;29.08;12.98;;;;;;;-5.39;85.20;95307.66;2042023;29;20503;-57
2022/12/12 00:27:35;;;;;;;27.70;14.77;;;;;;;-5.45;85.06;95301.72;2041344;29;20070;-57
2022/12/12 00:28:36;;;;;;;27.05;14.93;;;;;;;-5.39;85.75;95310.19;2042080;29;20055;-57
2022/12/12 00:29:37;;;;;;;26.88;14.32;;;;;;;-5.51;85.78;95311.84;2042051;29;20471;-56
2022/12/12 00:30:38;;;;;;;26.83;13.88;;;;;;;-5.58;86.75;95303.41;2041671;29;20047;-56
2022/12/12 00:31:40;;;;;;;26.15;14.35;;;;;;;-5.68;86.52;95306.72;2042077;29;20128;-56
2022/12/12 00:32:41;;;;;;;28.80;15.10;;;;;;;-5.77;87.13;95315.13;2041926;29;20044;-57
2022/12/12 00:33:43;;;;;;;29.52;14.55;;;;;;;-5.87;86.31;95311.69;2042032;29;20039;-56
2022/12/12 00:34:44;;;;;;;29.05;13.95;;;;;;;-5.94;87.28;95314.19;2041907;29;20531;-56
2022/12/12 00:35:49;;;;;;;32.80;15.45;;;;;;;-6.11;87.23;95301.47;2041551;29;20075;-57
2022/12/12 00:36:53;;;;;;;29.60;15.30;;;;;;;-6.01;87.46;95313.34;2041298;29;20047;-56
2022/12/12 00:37:54;;;;;;;30.88;14.35;;;;;;;-5.99;87.93;95314.16;2041364;29;20055;-55
2022/12/12 00:38:55;;;;;;;29.30;14.68;;;;;;;-6.07;87.16;95313.28;2041331;29;20055;-55
2022/12/12 00:39:56;;;;;;;26.65;14.18;;;;;;;-6.07;88.22;95314.13;2042074;29;20042;-56
2022/12/12 00:40:58;;;;;;;30.05;15.15;;;;;;;-6.16;88.34;95306.50;2041344;29;20051;-55
2022/12/12 00:41:59;;;;;;;28.80;15.45;;;;;;;-6.12;88.02;95309.88;2041344;29;20511;-58
2022/12/12 00:43:00;;;;;;;31.55;15.73;;;;;;;-6.10;87.57;95314.09;2041990;29;20039;-58
2022/12/12 00:44:01;;;;;;;32.38;14.93;;;;;;;-6.10;87.36;95316.63;2041221;29;20044;-58
2022/12/12 00:45:02;;;;;;;29.13;15.35;;;;;;;-6.12;88.31;95308.22;2041227;29;20048;-59
2022/12/12 00:46:04;;;;;;;27.92;14.95;;;;;;;-6.22;88.08;95297.19;2041228;29;20052;-58
2022/12/12 00:47:05;;;;;;;28.13;14.52;;;;;;;-6.30;87.55;95288.72;2042101;29;20140;-56
2022/12/12 00:48:06;;;;;;;28.67;14.95;;;;;;;-6.14;87.74;95309.88;2041778;29;20408;-57
2022/12/12 00:49:07;;;;;;;28.27;14.05;;;;;;;-6.13;88.00;95303.97;2041451;29;20052;-57
2022/12/12 00:50:08;;;;;;;31.25;15.10;;;;;;;-6.19;88.25;95303.13;2041990;29;20062;-57
2022/12/12 00:51:12;;;;;;;27.48;14.98;;;;;;;-6.24;87.96;95308.13;2041271;29;20048;-57
2022/12/12 00:52:13;;;;;;;34.05;15.85;;;;;;;-6.28;87.54;95303.88;2041174;29;20052;-56
2022/12/12 00:53:15;;;;;;;28.08;14.63;;;;;;;-6.27;88.08;95313.16;2041836;29;20036;-57
2022/12/12 00:54:16;;;;;;;26.38;14.57;;;;;;;-6.25;87.21;95304.75;2040328;29;20063;-57
2022/12/12 00:55:17;;;;;;;28.52;14.90;;;;;;;-6.27;87.58;95305.59;2040581;29;20427;-57
2022/12/12 00:56:19;;;;;;;29.70;14.32;;;;;;;-6.35;87.87;95309.75;2041503;29;20051;-57
2022/12/12 00:57:21;;;;;;;30.13;14.88;;;;;;;-6.36;88.30;95313.09;2041296;29;20490;-57
2022/12/12 00:58:22;;;;;;;30.33;14.93;;;;;;;-6.41;88.44;95307.16;2041987;29;20040;-56
2022/12/12 00:59:23;;;;;;;32.13;14.98;;;;;;;-6.44;87.66;95320.63;2041709;29;20046;-56
2022/12/12 01:00:24;;;;;;;27.27;14.80;;;;;;;-6.50;88.09;95305.41;2041078;29;20051;-56
2022/12/12 01:01:26;;;;;;;28.10;14.43;;;;;;;-6.47;87.80;95315.53;2041192;29;20058;-57
2022/12/12 01:02:27;;;;;;;26.92;14.60;;;;;;;-6.36;88.01;95318.13;2041144;29;20058;-56
2022/12/12 01:03:33;;;;;;;33.90;15.43;;;;;;;-6.38;88.34;95313.09;2041222;29;20082;-57
2022/12/12 01:04:34;;;;;;;29.02;15.00;;;;;;;-6.33;87.33;95313.13;2041549;29;20054;-56
2022/12/12 01:05:35;;;;;;;26.40;14.60;;;;;;;-6.32;87.78;95322.41;2041470;29;20519;-56
2022/12/12 01:06:36;;;;;;;29.08;14.23;;;;;;;-6.32;87.47;95320.72;2041728;29;20058;-56
2022/12/12 01:07:38;;;;;;;29.30;14.27;;;;;;;-6.32;87.33;95322.41;2041032;29;20068;-57
2022/12/12 01:08:39;;;;;;;28.23;14.75;;;;;;;-6.41;88.33;95320.66;2041763;29;20518;-57
2022/12/12 01:09:41;;;;;;;28.70;14.15;;;;;;;-6.40;87.96;95318.97;2041773;29;20051;-57
2022/12/12 01:10:43;;;;;;;30.85;14.88;;;;;;;-6.40;88.00;95321.50;2041467;29;20051;-56
2022/12/12 01:11:44;;;;;;;26.73;14.20;;;;;;;-6.39;87.84;95323.19;2041622;29;20058;-57
2022/12/12 01:12:45;;;;;;;28.13;13.63;;;;;;;-6.40;87.58;95318.97;2041381;29;20059;-57
2022/12/12 01:13:47;;;;;;;27.30;13.85;;;;;;;-6.41;88.73;95325.72;2041769;29;20055;-57
2022/12/12 01:14:48;;;;;;;27.27;14.27;;;;;;;-6.35;88.63;95319.84;2041715;29;20490;-56
2022/12/12 01:15:49;;;;;;;29.17;14.32;;;;;;;-6.33;87.32;95329.13;2041929;29;20039;-57
2022/12/12 01:16:50;;;;;;;26.98;14.27;;;;;;;-6.31;87.78;95326.59;2041449;29;20048;-58
2022/12/12 01:17:51;;;;;;;31.58;15.20;;;;;;;-6.31;88.29;95324.06;2041413;29;20404;-58
2022/12/12 01:18:52;;;;;;;29.25;15.15;;;;;;;-6.28;88.59;95327.50;2041604;29;20044;-58
2022/12/12 01:19:53;;;;;;;31.98;15.18;;;;;;;-6.27;87.47;95319.06;2041550;29;20055;-59
2022/12/12 01:20:55;;;;;;;30.38;15.50;;;;;;;-6.30;87.89;95323.25;2041382;29;20043;-58
2022/12/12 01:21:56;;;;;;;27.42;14.63;;;;;;;-6.36;89.05;95325.72;2042016;29;20039;-57
2022/12/12 01:22:57;;;;;;;31.42;14.25;;;;;;;-6.33;88.14;95316.50;2041634;29;20052;-57
2022/12/12 01:23:58;;;;;;;30.35;15.85;;;;;;;-6.30;87.97;95315.69;2041741;29;20472;-58
2022/12/12 01:24:59;;;;;;;30.52;14.73;;;;;;;-6.27;88.45;95319.06;2041414;29;20070;-58
2022/12/12 01:26:05;;;;;;;24.52;14.13;;;;;;;-6.25;87.84;95324.13;2041059;29;20048;-58
2022/12/12 01:27:06;;;;;;;25.63;14.68;;;;;;;-6.24;88.14;95320.75;2041434;29;20455;-56
2022/12/12 01:28:07;;;;;;;28.33;15.13;;;;;;;-6.25;88.41;95326.66;2041606;29;20036;-55
2022/12/12 01:29:08;;;;;;;30.45;15.40;;;;;;;-6.22;88.12;95326.69;2041554;29;20039;-56
2022/12/12 01:30:15;;;;;;;30.00;15.23;;;;;;;-6.26;88.80;95328.31;2041524;29;20166;-55
2022/12/12 01:31:16;;;;;;;33.47;15.30;;;;;;;-6.27;89.38;95319.06;2041318;29;20506;-55
2022/12/12 01:32:17;;;;;;;32.40;16.15;;;;;;;-6.25;88.27;95321.63;2041508;29;20058;-56
2022/12/12 01:33:18;;;;;;;31.23;16.13;;;;;;;-6.27;89.13;95334.22;2041643;29;20056;-55
2022/12/12 01:34:19;;;;;;;30.33;15.32;;;;;;;-6.26;88.72;95330.00;2041330;29;20400;-55
2022/12/12 01:35:21;;;;;;;29.45;15.88;;;;;;;-6.35;88.70;95325.75;2041540;29;20044;-55
2022/12/12 01:36:22;;;;;;;30.13;15.68;;;;;;;-6.28;89.22;95326.63;2041095;29;20051;-56
2022/12/12 01:37:23;;;;;;;29.75;16.33;;;;;;;-6.29;88.88;95319.88;2040913;29;20056;-56
2022/12/12 01:38:24;;;;;;;28.10;14.85;;;;;;;-6.30;88.69;95339.25;2041497;29;20051;-56
2022/12/12 01:39:25;;;;;;;29.65;14.98;;;;;;;-6.44;88.59;95313.91;2041570;29;20047;-55
2022/12/12 01:40:27;;;;;;;31.58;16.23;;;;;;;-6.34;88.77;95331.63;2041407;29;20451;-56
2022/12/12 01:41:28;;;;;;;30.95;15.40;;;;;;;-6.34;88.93;95329.94;2041921;29;20047;-56
2022/12/12 01:42:30;;;;;;;33.70;15.98;;;;;;;-6.32;89.70;95329.97;2041737;29;20405;-56
2022/12/12 01:43:31;;;;;;;30.60;15.00;;;;;;;-6.33;88.98;95331.66;2041135;29;20062;-55
2022/12/12 01:44:41;;;;;;;33.38;16.08;;;;;;;-6.30;89.10;95336.72;2041780;29;20039;-57
2022/12/12 01:45:58;;;;;;;28.95;15.02;;;;;;;-6.31;89.68;95335.03;2040999;29;20055;-54
2022/12/12 01:46:59;;;;;;;30.52;15.45;;;;;;;-6.34;88.81;95329.13;2041631;29;20050;-54
2022/12/12 01:48:00;;;;;;;30.15;14.98;;;;;;;-6.29;88.67;95340.94;2041664;29;20042;-56
2022/12/12 01:49:08;;;;;;;31.55;15.98;;;;;;;-6.30;89.31;95336.72;2041864;29;20047;-55
2022/12/12 01:50:11;;;;;;;33.75;15.90;;;;;;;-6.36;89.04;95329.13;2040874;29;20047;-55
2022/12/12 01:51:15;;;;;;;29.05;14.77;;;;;;;-6.31;89.95;95341.75;2026278;29;20044;-55
2022/12/12 01:52:18;;;;;;;29.58;16.02;;;;;;;-6.36;88.66;95328.25;2025620;29;20059;-56
2022/12/12 01:53:19;;;;;;;36.88;16.08;;;;;;;-6.28;89.02;95337.59;2033183;29;20457;-56
2022/12/12 01:54:32;;;;;;;32.55;16.20;;;;;;;-6.29;89.37;95335.88;2033377;29;20118;-56
2022/12/12 01:55:33;;;;;;;31.42;15.23;;;;;;;-6.31;88.92;95336.72;2040468;29;20055;-55
2022/12/12 01:56:34;;;;;;;29.42;16.30;;;;;;;-6.31;90.08;95334.19;2041598;29;20404;-55
2022/12/12 01:57:39;;;;;;;36.83;17.67;;;;;;;-6.33;89.35;95333.34;2040436;29;20048;-56
2022/12/12 01:58:42;;;;;;;30.75;16.10;;;;;;;-6.32;89.44;95332.50;2041000;29;20062;-56
2022/12/12 01:59:43;;;;;;;33.47;16.48;;;;;;;-6.27;89.57;95333.38;2040476;29;20059;-55
2022/12/12 02:00:44;;;;;;;33.22;15.73;;;;;;;-6.26;89.21;95335.06;2033179;29;20059;-56
2022/12/12 02:01:45;;;;;;;34.20;16.17;;;;;;;-6.29;88.79;95338.41;2041761;29;20043;-56
2022/12/12 02:02:46;;;;;;;35.55;16.60;;;;;;;-6.29;88.93;95335.03;2040905;29;20044;-56
2022/12/12 02:03:48;;;;;;;29.08;15.38;;;;;;;-6.27;89.81;95340.97;2041062;29;20071;-57
2022/12/12 02:04:49;;;;;;;32.20;16.88;;;;;;;-6.30;89.59;95333.38;2041406;29;20074;-56
2022/12/12 02:05:51;;;;;;;31.98;16.38;;;;;;;-6.24;89.06;95346.03;2040715;29;20054;-57
2022/12/12 02:06:52;;;;;;;30.33;15.85;;;;;;;-6.27;89.72;95341.81;2033347;29;20044;-56
2022/12/12 02:07:53;;;;;;;31.80;15.57;;;;;;;-6.32;88.88;95340.09;2033181;29;20457;-55
2022/12/12 02:08:57;;;;;;;35.42;16.23;;;;;;;-6.28;89.35;95337.59;2026553;29;20047;-55
2022/12/12 02:09:58;;;;;;;29.95;15.32;;;;;;;-6.26;88.56;95340.13;2034585;29;20047;-55
2022/12/12 02:10:59;;;;;;;31.67;16.42;;;;;;;-6.23;89.58;95335.06;2042182;29;20047;-55
2022/12/12 02:12:00;;;;;;;33.78;15.52;;;;;;;-6.28;88.22;95342.66;2041734;29;20431;-55
2022/12/12 02:13:04;;;;;;;31.85;16.30;;;;;;;-6.29;89.64;95340.09;2041876;29;20047;-56
2022/12/12 02:14:05;;;;;;;27.17;15.30;;;;;;;-6.31;89.39;95339.25;2042445;29;20403;-55
2022/12/12 02:15:07;;;;;;;29.88;15.60;;;;;;;-6.27;89.58;95343.50;2042685;29;20043;-56
2022/12/12 02:16:14;;;;;;;29.17;15.20;;;;;;;-6.26;88.85;95335.06;2049930;29;20534;-54
2022/12/12 02:17:30;;;;;;;32.10;15.82;;;;;;;-6.21;88.97;95343.53;2042394;29;20035;-56
2022/12/12 02:18:59;;;;;;;33.33;16.33;;;;;;;-6.20;89.21;95340.19;2042119;29;20051;-56
2022/12/12 02:20:25;;;;;;;33.92;15.40;;;;;;;-6.19;89.26;95351.13;2043060;29;20047;-55
2022/12/12 02:21:33;;;;;;;29.90;15.50;;;;;;;-6.24;89.21;95346.03;2041835;29;20043;-56
2022/12/12 02:22:40;;;;;;;31.73;16.25;;;;;;;-6.28;89.62;95351.88;2037518;29;20047;-55
2022/12/12 02:23:56;;;;;;;31.13;15.88;;;;;;;-6.26;89.27;95345.16;2034959;29;20047;-56
2022/12/12 02:25:09;;;;;;;29.58;15.05;;;;;;;-6.22;89.39;95342.69;2028613;29;20048;-56
2022/12/12 02:26:40;;;;;;;37.67;16.60;;;;;;;-6.21;88.82;95341.84;2029940;29;20127;-55
2022/12/12 02:28:05;;;;;;;32.85;16.52;;;;;;;-6.21;89.59;95341.00;2037594;29;20059;-55
2022/12/12 02:29:24;;;;;;;33.60;15.73;;;;;;;-6.25;89.54;95349.41;2042166;29;20047;-55
2022/12/12 02:30:44;;;;;;;30.73;15.85;;;;;;;-6.22;89.51;95341.84;2042575;29;20048;-56
2022/12/12 02:32:03;;;;;;;33.80;16.02;;;;;;;-6.22;89.40;95342.69;2034540;29;20059;-55
2022/12/12 02:33:07;;;;;;;31.52;15.93;;;;;;;-6.24;88.50;95338.44;2039813;29;20427;-56
2022/12/12 02:34:15;;;;;;;32.28;16.27;;;;;;;-6.24;88.86;95339.28;2042441;29;20051;-56
2022/12/12 02:35:34;;;;;;;32.03;16.25;;;;;;;-6.18;89.25;95346.06;2042268;29;20055;-56
2022/12/12 02:36:51;;;;;;;30.65;15.18;;;;;;;-6.17;89.25;95341.84;2042410;29;20523;-56
2022/12/12 02:38:16;;;;;;;34.95;15.07;;;;;;;-6.22;88.32;95347.75;2042964;29;20051;-55
2022/12/12 02:39:39;;;;;;;31.40;15.88;;;;;;;-6.26;89.33;95343.47;2042690;29;20043;-55
2022/12/12 02:40:45;;;;;;;29.75;14.57;;;;;;;-6.27;89.44;95351.91;2042446;29;20047;-56
2022/12/12 02:41:52;;;;;;;33.92;15.77;;;;;;;-6.33;88.74;95339.25;2034497;29;20056;-64
2022/12/12 02:43:10;;;;;;;37.38;16.70;;;;;;;-6.32;89.42;95345.97;2027008;29;20055;-64
2022/12/12 02:44:29;;;;;;;35.53;16.88;;;;;;;-6.43;89.46;95343.38;2036719;29;20047;-64
2022/12/12 02:45:40;;;;;;;29.77;14.98;;;;;;;-6.38;88.65;95345.09;2043990;29;20051;-65
2022/12/12 02:47:17;;;;;;;28.27;15.00;;;;;;;-6.34;89.53;95347.63;2034723;29;20044;-56
2022/12/12 02:48:57;;;;;;;35.40;15.43;;;;;;;-6.34;88.67;95346.81;2043861;29;20401;-55
2022/12/12 02:50:30;;;;;;;33.00;15.30;;;;;;;-6.32;89.30;95345.97;2044955;29;20044;-55
2022/12/12 02:51:31;;;;;;;28.60;14.98;;;;;;;-6.29;88.97;95346.00;2042408;29;20445;-59
2022/12/12 02:52:32;;;;;;;32.65;15.88;;;;;;;-6.26;88.47;95350.22;2028695;29;20071;-59
2022/12/12 02:53:33;;;;;;;33.00;16.08;;;;;;;-6.27;88.27;95351.06;2026073;29;20437;-58
2022/12/12 02:54:34;;;;;;;33.63;16.35;;;;;;;-6.26;87.89;95355.28;2041645;29;20411;-59
2022/12/12 02:55:35;;;;;;;31.08;15.73;;;;;;;-6.28;88.62;95352.75;2042648;29;20044;-59
2022/12/12 02:56:45;;;;;;;29.15;15.32;;;;;;;-6.33;88.96;95356.09;2042239;29;20054;-59
2022/12/12 02:57:46;;;;;;;32.05;16.52;;;;;;;-6.31;89.31;95352.72;2042517;29;20051;-58
2022/12/12 02:58:47;;;;;;;28.85;16.15;;;;;;;-6.29;88.79;95356.09;2042951;29;20050;-58
2022/12/12 02:59:59;;;;;;;31.13;15.70;;;;;;;-6.27;88.19;95353.59;2042460;29;20510;-59
2022/12/12 03:01:26;;;;;;;35.08;17.23;;;;;;;-6.29;89.07;95357.78;2034397;29;20498;-59
2022/12/12 03:02:38;;;;;;;33.78;15.40;;;;;;;-6.29;89.27;95365.38;2033086;29;20071;-58
2022/12/12 03:08:38;;;;;;;29.70;14.82;;;;;;;-6.26;88.05;95357.81;2042582;29;20058;-60
2022/12/12 03:10:23;;;;;;;36.33;16.13;;;;;;;-6.29;88.69;95360.31;2042052;29;20039;-60
2022/12/12 03:11:44;;;;;;;31.15;14.50;;;;;;;-6.39;88.40;95363.59;2016378;29;20057;-60
2022/12/12 03:12:57;;;;;;;30.70;15.43;;;;;;;-6.46;88.42;95363.56;1987667;29;20416;-59
2022/12/12 03:14:18;;;;;;;34.25;16.00;;;;;;;-6.55;88.68;95355.06;2036010;29;20062;-59
2022/12/12 03:15:25;;;;;;;31.27;14.63;;;;;;;-6.54;87.97;95361.81;2037257;29;20058;-60
2022/12/12 03:16:43;;;;;;;29.65;14.70;;;;;;;-6.55;88.50;95370.19;2037232;29;20043;-59
2022/12/12 03:17:48;;;;;;;32.75;14.80;;;;;;;-6.58;88.39;95363.44;2044913;29;20050;-59
2022/12/12 03:18:55;;;;;;;35.97;16.20;;;;;;;-6.56;88.80;95366.00;2041910;29;20047;-60
2022/12/12 03:20:03;;;;;;;37.47;16.75;;;;;;;-6.58;87.86;95367.66;2041430;29;20491;-59
2022/12/12 03:21:13;;;;;;;33.13;15.27;;;;;;;-6.61;88.11;95367.63;2042078;29;20066;-60
2022/12/12 03:22:24;;;;;;;33.70;16.00;;;;;;;-6.67;88.26;95373.47;2027576;29;20067;-60
2022/12/12 03:23:27;;;;;;;31.63;16.25;;;;;;;-6.66;87.77;95370.13;2029206;29;20491;-60
2022/12/12 03:24:32;;;;;;;36.40;15.40;;;;;;;-6.70;86.84;95361.66;2033667;29;20063;-60
2022/12/12 03:25:37;;;;;;;31.60;15.38;;;;;;;-6.78;86.64;95370.03;2034483;29;20430;-60
2022/12/12 03:26:43;;;;;;;32.03;15.05;;;;;;;-6.88;86.66;95359.81;2034429;29;20063;-60
2022/12/12 03:28:12;;;;;;;33.38;15.32;;;;;;;-6.89;87.15;95367.38;2026575;29;20052;-59
2022/12/12 03:29:14;;;;;;;;;;;;;;;-6.96;86.16;95378.25;2037458;29;20095;-60
2022/12/12 03:30:16;;;;;;;34.45;15.15;;;;;;;-6.97;86.76;95374.03;2034108;29;19915;-60
2022/12/12 03:31:20;;;;;;;32.60;15.63;;;;;;;-7.20;86.25;95377.16;2026391;29;20055;-59
2022/12/12 03:32:23;;;;;;;35.40;16.13;;;;;;;-7.26;86.72;95377.09;2026580;29;20521;-60
2022/12/12 03:33:28;;;;;;;30.92;15.27;;;;;;;-7.26;86.28;95373.72;2034039;29;20059;-57
2022/12/12 03:34:37;;;;;;;30.05;13.43;;;;;;;-7.21;87.43;95370.41;2033632;29;20064;-58
2022/12/12 03:35:41;;;;;;;33.35;15.60;;;;;;;-7.26;86.90;95366.16;2027402;29;20049;-60
2022/12/12 03:36:46;;;;;;;29.90;15.10;;;;;;;-7.24;86.75;95377.97;2026777;29;20051;-60
2022/12/12 03:37:53;;;;;;;34.17;16.35;;;;;;;-7.50;86.46;95385.22;2027539;29;20516;-60
2022/12/12 03:38:57;;;;;;;32.03;15.98;;;;;;;-7.52;87.22;95381.81;2044356;29;20050;-57
2022/12/12 03:40:01;;;;;;;32.35;14.90;;;;;;;-7.52;87.36;95379.28;2041362;29;20060;-60
2022/12/12 03:41:04;;;;;;;29.85;14.73;;;;;;;-7.55;86.46;95379.25;2026490;29;20048;-59
2022/12/12 03:42:09;;;;;;;31.13;15.10;;;;;;;-7.67;85.60;95379.09;2026458;29;20527;-59
2022/12/12 03:43:13;;;;;;;32.05;15.63;;;;;;;-7.67;86.87;95384.13;2033961;29;20055;-60
2022/12/12 03:44:24;;;;;;;31.38;14.80;;;;;;;-7.60;87.17;95378.34;2041735;29;20050;-60
2022/12/12 03:45:29;;;;;;;30.92;14.80;;;;;;;-7.62;86.27;95382.53;2027340;29;20393;-60
2022/12/12 03:46:47;;;;;;;35.08;15.38;;;;;;;-7.63;86.82;95383.34;2035363;29;20122;-58
2022/12/12 03:47:57;;;;;;;32.60;15.13;;;;;;;-7.72;85.54;95386.63;2038951;29;20565;-59
2022/12/12 03:49:16;;;;;;;29.42;15.35;;;;;;;-7.68;85.47;95384.97;2035537;29;20282;-60
2022/12/12 03:50:21;;;;;;;38.70;17.40;;;;;;;-7.84;86.51;95389.78;2041517;29;20043;-59
2022/12/12 03:51:27;;;;;;;31.33;15.05;;;;;;;-7.93;86.73;95392.19;2041601;29;20055;-59
2022/12/12 03:52:34;;;;;;;32.67;15.13;;;;;;;-8.02;86.65;95382.84;2033815;29;20059;-59
2022/12/12 03:53:39;;;;;;;35.17;16.23;;;;;;;-7.98;87.05;95383.72;2034787;29;20036;-57
2022/12/12 03:54:44;;;;;;;30.15;14.95;;;;;;;-8.01;86.46;95383.69;2033730;29;20056;-59
2022/12/12 03:56:08;;;;;;;30.17;14.48;;;;;;;-7.99;86.42;95385.41;2026542;29;20048;-60
2022/12/12 03:57:12;;;;;;;29.55;14.20;;;;;;;-8.01;86.71;95389.56;2040114;29;20039;-59
2022/12/12 03:58:26;;;;;;;30.27;15.43;;;;;;;-7.97;86.46;95394.66;2039806;29;20055;-59
2022/12/12 03:59:41;;;;;;;31.30;14.90;;;;;;;-7.95;86.67;95382.94;2034809;29;20052;-59
2022/12/12 04:00:44;;;;;;;33.33;15.70;;;;;;;-8.15;86.29;95365.84;2027766;29;20048;-58
2022/12/12 04:02:06;;;;;;;34.05;15.95;;;;;;;-8.01;86.17;95381.16;2026711;29;20048;-59
2022/12/12 04:03:23;;;;;;;32.92;14.80;;;;;;;-8.07;87.45;95383.56;2026255;29;20412;-59
2022/12/12 04:04:42;;;;;;;29.75;14.35;;;;;;;-8.06;86.07;95378.56;2041824;29;20043;-59
2022/12/12 04:06:26;;;;;;;34.33;14.98;;;;;;;-8.10;87.60;95378.50;2042245;29;20047;-59
2022/12/12 04:07:42;;;;;;;27.27;13.40;;;;;;;-8.08;87.94;95380.22;2042316;29;20047;-59
2022/12/12 04:12:57;;;;;;;30.85;15.52;;;;;;;-8.08;87.65;95379.38;2041861;29;20082;-59
2022/12/12 04:13:07;;;;;;;29.02;14.20;;;;;;;-8.15;87.31;95382.63;2038467;29;20131;-59
2022/12/12 04:14:46;;;;;;;35.97;14.40;;;;;;;-8.19;86.07;95378.38;2038823;29;20051;-59
2022/12/12 04:15:51;;;;;;;34.17;15.15;;;;;;;-8.18;86.14;95382.59;2041804;29;20491;-59
2022/12/12 04:16:59;;;;;;;31.38;14.75;;;;;;;-8.23;87.01;95385.91;2041434;29;20073;-57
2022/12/12 04:18:39;;;;;;;31.58;15.15;;;;;;;-8.17;86.34;95389.34;2040880;29;20051;-57
2022/12/12 04:24:38;;;;;;;35.00;14.60;;;;;;;-8.01;86.45;95386.22;2039392;29;20091;-57
2022/12/12 04:27:21;;;;;;;31.52;15.10;;;;;;;-8.09;86.64;95390.28;2040862;29;20057;-57
2022/12/12 04:28:22;;;;;;;30.50;14.13;;;;;;;-8.07;86.16;95393.66;2029584;29;20063;-57
2022/12/12 04:29:35;;;;;;;36.00;15.55;;;;;;;-8.11;85.53;95399.50;2018013;29;20061;-57
2022/12/12 04:30:36;;;;;;;32.55;14.60;;;;;;;-8.03;87.01;95400.44;2035234;29;20075;-56
2022/12/12 04:31:45;;;;;;;28.63;13.45;;;;;;;-8.07;86.38;95394.53;2048513;28;20062;-57
2022/12/12 04:33:05;;;;;;;28.75;14.73;;;;;;;-8.03;85.41;95397.94;2048282;29;20051;-57
2022/12/12 04:34:11;;;;;;;29.13;14.73;;;;;;;-8.01;85.85;95398.81;2041346;29;20062;-57
2022/12/12 04:35:30;;;;;;;29.60;13.32;;;;;;;-8.05;86.54;95402.09;2033806;29;20475;-56
2022/12/12 04:36:31;;;;;;;28.60;13.30;;;;;;;-8.00;86.59;95408.91;2041011;29;20044;-63
2022/12/12 04:37:36;;;;;;;30.30;13.30;;;;;;;-7.95;86.25;95408.13;2040948;29;20053;-65
2022/12/12 04:38:37;;;;;;;30.52;14.52;;;;;;;-8.01;86.72;95402.16;2026087;29;20045;-65
2022/12/12 04:39:38;;;;;;;35.15;15.02;;;;;;;-8.05;86.26;95400.41;2025943;29;20057;-64
2022/12/12 04:40:42;;;;;;;35.58;15.95;;;;;;;-8.01;86.71;95401.31;2025906;29;20318;-65
2022/12/12 04:41:43;;;;;;;33.30;14.77;;;;;;;-7.96;86.39;95404.78;2033682;29;20047;-65
2022/12/12 04:42:47;;;;;;;31.40;14.50;;;;;;;-7.89;86.48;95409.06;2040953;29;20056;-65
2022/12/12 04:43:48;;;;;;;31.73;15.10;;;;;;;-7.90;86.89;95407.38;2033010;29;20052;-65
2022/12/12 04:44:51;;;;;;;28.85;13.70;;;;;;;-7.85;85.77;95404.91;2026265;29;20032;-65
2022/12/12 04:45:54;;;;;;;33.17;15.15;;;;;;;-7.86;85.76;95408.25;2041155;29;20039;-65
2022/12/12 04:46:56;;;;;;;32.78;14.57;;;;;;;-7.83;85.69;95409.16;2041981;29;20119;-56
2022/12/12 04:47:57;;;;;;;29.25;14.55;;;;;;;-7.89;86.53;95410.72;2041276;29;20043;-56
2022/12/12 04:49:02;;;;;;;27.23;13.50;;;;;;;-8.03;86.38;95383.66;2040779;29;20456;-57
2022/12/12 04:50:04;;;;;;;28.70;14.27;;;;;;;-7.90;86.65;95409.03;2040909;29;20441;-56
2022/12/12 04:51:06;;;;;;;25.67;13.15;;;;;;;-7.93;87.22;95412.38;2041350;29;20055;-56
2022/12/12 04:52:08;;;;;;;29.65;14.07;;;;;;;-7.94;87.14;95409.81;2040851;29;20074;-56
2022/12/12 04:53:10;;;;;;;28.88;13.15;;;;;;;-7.95;86.52;95408.13;2033453;29;20413;-56
2022/12/12 04:54:35;;;;;;;31.10;13.25;;;;;;;-7.94;86.94;95409.81;2025332;29;20045;-56
2022/12/12 04:55:38;;;;;;;27.08;13.68;;;;;;;-7.91;85.61;95404.81;2036877;29;20476;-56
2022/12/12 04:56:40;;;;;;;26.50;13.35;;;;;;;-7.91;85.53;95407.34;2041195;29;20045;-57
2022/12/12 04:57:43;;;;;;;30.15;14.82;;;;;;;-7.88;86.09;95409.91;2025502;29;20075;-55
2022/12/12 04:58:44;;;;;;;28.05;13.45;;;;;;;-7.90;85.91;95407.38;2033469;29;20436;-57
2022/12/12 04:59:46;;;;;;;27.13;13.65;;;;;;;-7.91;87.06;95408.19;2033133;29;20052;-57
2022/12/12 05:01:05;;;;;;;28.17;12.82;;;;;;;-7.91;86.91;95413.25;2040538;29;20056;-57
2022/12/12 05:02:27;;;;;;;28.90;13.18;;;;;;;-7.89;86.87;95421.66;2033326;29;20048;-56
2022/12/12 05:03:40;;;;;;;28.95;12.98;;;;;;;-7.87;86.78;95412.44;2030976;29;20051;-56
2022/12/12 05:05:04;;;;;;;31.13;13.57;;;;;;;-7.86;86.94;95418.34;2034357;29;20052;-57
2022/12/12 05:06:07;;;;;;;31.20;13.48;;;;;;;-7.91;86.86;95415.75;2035798;29;20146;-56
2022/12/12 05:07:10;;;;;;;28.75;12.80;;;;;;;-7.95;87.76;95414.00;2027888;29;20052;-56
2022/12/12 05:08:18;;;;;;;28.55;12.85;;;;;;;-7.91;86.82;95414.88;2033657;29;20055;-56
2022/12/12 05:09:19;;;;;;;28.10;13.95;;;;;;;-7.89;88.11;95415.78;2034457;29;20036;-56
2022/12/12 05:10:21;;;;;;;31.25;14.52;;;;;;;-7.88;88.07;95415.81;2032766;29;20055;-54
2022/12/12 05:11:22;;;;;;;30.23;14.48;;;;;;;-7.88;86.92;95409.91;2025453;29;20044;-56
2022/12/12 05:12:23;;;;;;;32.40;13.40;;;;;;;-7.89;86.99;95423.31;2025461;29;20053;-56
2022/12/12 05:13:28;;;;;;;27.45;13.48;;;;;;;-7.89;86.58;95419.13;2040988;29;20051;-56
2022/12/12 05:14:30;;;;;;;28.70;13.85;;;;;;;-7.86;87.64;95413.28;2041605;29;20066;-55
2022/12/12 05:15:31;;;;;;;29.30;13.10;;;;;;;-7.81;86.78;95417.56;2041651;29;20381;-56
2022/12/12 05:16:59;;;;;;;26.00;12.52;;;;;;;-7.85;86.67;95418.38;2041399;29;20055;-57
2022/12/12 05:18:02;;;;;;;34.45;14.23;;;;;;;-7.77;86.01;95429.41;2039719;29;20067;-57
2022/12/12 05:19:04;;;;;;;29.38;14.43;;;;;;;-7.76;85.92;95425.19;2048690;29;20043;-57
2022/12/12 05:20:05;;;;;;;29.48;13.75;;;;;;;-7.73;86.62;95422.72;2048357;29;20047;-57